• Join FlightAware (Why Join?)
  • Login
  • US Flag 
10:42PM EDT


 

Airport Tracker/Info


-or-


 

Live Flight TrackerFlight Track Log ✈ N400PU ✈ 09-Dec-2013 ✈ KIND - KTEB

Flight Track Log - Related Links

Times and Time Zones

All times are in EST time to prevent confusion due to time zone crossing. See the N400PU flight status page for this flight to view local times or setup timezone preferences in your user account.

Time Position Orientation Groundspeed Altitude Reporting Facility
EST Latitude Longitude Course Direction KTS MPH feet Rate Location/Type
10:09AM 39.7167 -86.3000 218° Southwest 153 176 1,300  Level Indianapolis TRACON
10:10AM 39.7000 -86.3167 218° Southwest 153 176 1,600 2,880 Climbing Indianapolis TRACON
10:11AM 39.6667 -86.3500 218° Southwest 221 254 4,500 2,220 Climbing Indianapolis TRACON
10:12AM 39.6000 -86.3167 159° South 299 344 6,100 1,860 Climbing Indianapolis TRACON
10:13AM 39.6197 -86.2053 77° East 294 338 8,600 2,160 Climbing Indianapolis Center
10:14AM 39.6506 -86.0933 70° East 327 376 10,900 2,340 Climbing Indianapolis Center
10:15AM 39.6931 -85.9408 70° East 380 437 13,500 2,400 Climbing Indianapolis Center
10:16AM 39.7325 -85.8103 69° East 391 450 15,900 1,980 Climbing Indianapolis Center
10:17AM 39.7936 -85.6867 57° Northeast 410 472 17,700 1,560 Climbing Indianapolis Center
10:18AM 39.8564 -85.5514 59° Northeast 437 503 19,200 1,500 Climbing Indianapolis Center
10:19AM 39.9236 -85.4078 59° Northeast 460 529 20,900 1,800 Climbing Indianapolis Center
10:20AM 40.0058 -85.2308 59° Northeast 476 548 23,000 1,800 Climbing Indianapolis Center
10:21AM 40.0781 -85.0811 58° Northeast 484 557 24,700 1,560 Climbing Indianapolis Center
10:22AM 40.1622 -84.9439 51° Northeast 485 558 26,300 1,440 Climbing Indianapolis Center
10:23AM 40.2500 -84.8069 50° Northeast 483 556 27,700 1,200 Climbing Indianapolis Center
10:24AM 40.3353 -84.6692 51° Northeast 486 559 28,900 1,020 Climbing Indianapolis Center
10:25AM 40.4219 -84.5278 51° Northeast 494 568 29,900 960 Climbing Indianapolis Center
10:26AM 40.5075 -84.3819 52° Northeast 503 579 30,900 960 Climbing Indianapolis Center
10:27AM 40.6125 -84.2044 52° Northeast 509 586 31,900 840 Climbing Indianapolis Center
10:28AM 40.7006 -84.0514 53° Northeast 520 598 32,700 720 Climbing Indianapolis Center
10:29AM 40.7925 -83.8936 52° Northeast 537 618 33,500 780 Climbing Indianapolis Center
10:30AM 40.8839 -83.7361 52° Northeast 540 621 34,400 840 Climbing Indianapolis Center
10:31AM 40.9764 -83.5775 52° Northeast 543 625 35,300 900 Climbing Indianapolis Center
10:32AM 41.0711 -83.4139 52° Northeast 541 623 36,300 780 Climbing Indianapolis Center
10:33AM 41.1344 -83.2339 65° Northeast 539 620 37,000 300 Climbing Indianapolis Center
10:34AM 41.1667 -83.0314 78° East 554 638 37,000  Level Indianapolis Center
10:35AM 41.1992 -82.8250 78° East 564 649 37,000  Level Indianapolis Center
10:36AM 41.2375 -82.5753 78° East 582 670 37,000  Level Indianapolis Center
10:37AM 41.2711 -82.3636 78° East 582 670 37,000  Level Indianapolis Center
10:38AM 41.3033 -82.1508 79° East 581 669 37,000  Level Indianapolis Center
10:39AM 41.3347 -81.9378 79° East 582 670 37,000  Level Indianapolis Center
10:40AM 41.3642 -81.7422 79° East 579 666 37,000  Level Indianapolis Center
10:42AM 41.3994 -81.4975 79° East 585 673 37,000  Level Indianapolis Center
10:43AM 41.4303 -81.2833 79° East 581 669 37,000  Level Indianapolis Center
10:44AM 41.4700 -81.0006 79° East 578 665 37,000  Level Cleveland Center
10:45AM 41.5006 -80.7897 79° East 575 662 37,000  Level Cleveland Center
10:46AM 41.5300 -80.5806 79° East 570 656 37,000  Level Cleveland Center
10:47AM 41.5564 -80.3700 80° East 571 657 37,000  Level Cleveland Center
10:48AM 41.5850 -80.1556 80° East 574 661 37,000  Level Cleveland Center
10:49AM 41.6150 -79.9364 80° East 577 664 37,000  Level Cleveland Center
10:50AM 41.6408 -79.7281 81° East 572 658 37,000  Level Cleveland Center
10:51AM 41.6675 -79.5192 80° East 570 656 37,000  Level Cleveland Center
10:52AM 41.6931 -79.3114 81° East 567 652 37,000  Level Cleveland Center
10:53AM 41.7217 -79.0861 80° East 562 647 37,000  Level Cleveland Center
10:54AM 41.7486 -78.8567 81° East 564 649 37,000  Level Cleveland Center
10:55AM 41.7744 -78.6472 81° East 568 654 37,000  Level Cleveland Center
10:56AM 41.7986 -78.4394 81° East 567 652 37,000  Level Cleveland Center
10:57AM 41.8219 -78.2344 81° East 557 641 37,000  Level Cleveland Center
10:58AM 41.8461 -78.0336 81° East 549 632 37,000 -900 Level Cleveland Center
10:59AM 41.8533 -77.8608 87° East 561 646 35,400 -1,140 Descending New York Center
11:00AM 41.8164 -77.6758 105° East 531 611 35,000 -240 Descending New York Center
11:01AM 41.7706 -77.4931 109° East 515 593 35,000  Level New York Center
11:02AM 41.7131 -77.2928 111° Southeast 521 600 35,000  Level New York Center
11:03AM 41.6700 -77.1275 109° East 521 600 35,000 -840 Level New York Center
11:04AM 41.6211 -76.9478 110° East 521 600 33,400 -1,740 Descending New York Center
11:05AM 41.5742 -76.7689 109° East 521 600 31,500 -1,920 Descending New York Center
11:06AM 41.5192 -76.5728 110° East 516 594 29,600 -1,800 Descending New York Center
11:07AM 41.4697 -76.3911 110° East 516 594 28,000 -1,860 Descending New York Center
11:08AM 41.4181 -76.1989 110° East 528 608 25,900 -2,280 Descending New York Center
11:09AM 41.3692 -76.0372 112° Southeast 533 613 23,500 -2,580 Descending New York Center
11:10AM 41.3228 -75.8622 109° East 519 597 20,800 -2,640 Descending New York Center
11:11AM 41.2733 -75.6986 112° Southeast 493 567 18,300 -2,700 Descending New York Center
11:12AM 41.2236 -75.5431 113° Southeast 470 541 15,500 -2,760 Descending New York Center
11:13AM 41.1694 -75.3822 114° Southeast 439 505 12,800 -2,400 Descending New York Center
11:14AM 41.1267 -75.2472 113° Southeast 416 479 10,700 -2,040 Descending New York Center
11:15AM 41.0889 -75.1428 116° Southeast 366 421 8,800 -1,800 Descending New York Center
11:16AM 41.0533 -75.0358 114° Southeast 332 382 7,100 -1,380 Descending New York Center
11:17AM 41.0194 -74.9319 113° Southeast 312 359 6,100 -840 Descending New York Center
11:18AM 41.0008 -74.8072 101° East 307 353 5,500 -1,020 Descending New York Center
11:19AM 41.0003 -74.7000 90° East 300 345 4,100 -720 Descending New York Center
11:20AM 41.0264 -74.6050 70° East 276 318 4,100  Level New York Center
11:21AM 41.0461 -74.5100 75° East 275 316 4,100 -480 Level New York Center
11:22AM 40.9869 -74.4736 155° Southeast 181 208 3,200 -540 Descending New York Center
11:23AM 40.9247 -74.4647 174° South 217 250 3,100 -60 Descending New York Center
11:24AM 40.8628 -74.4478 168° South 224 258 3,100 -120 Level New York Center
11:25AM 40.8333 -74.4167 141° Southeast 244 281 3,000 -360 Descending New York TRACON
11:26AM 40.7833 -74.3667 143° Southeast 241 277 2,600 -600 Descending New York TRACON
11:27AM 40.7333 -74.3167 143° Southeast 197 227 1,900 -300 Descending New York TRACON
11:28AM 40.7167 -74.2667 114° Southeast 160 184 2,000 -240 Climbing New York TRACON
11:29AM 40.7500 -74.2167 49° Northeast 168 193 1,500 -300 Descending New York TRACON
11:30AM 40.7667 -74.1833 57° Northeast 151 174 1,500 -60 Level New York TRACON
11:31AM 40.8000 -74.1333 49° Northeast 145 167 1,400 -360 Descending New York TRACON
11:32AM 40.8167 -74.1000 57° Northeast 108 124 800 -600 Descending New York TRACON
11:34AM 40.8500 -74.0500 101° East  Level FlightAware Approximate
11:41AM 40.8501 -74.0608 101° East  Level Estimated